Time;durP1;ratioP1;P1;durP2;ratioP2;P2;SDS_P1;SDS_P2;PMS_P1;PMS_P2;Temp;Humidity;BMP_temperature;BMP_pressure;BME280_temperature;BME280_humidity;BME280_pressure;Samples;Min_cycle;Max_cycle;Signal;HPM_P1;HPM_P2
2021/04/25 00:01:29;;;;;;;37.05;21.97;;;;;;;5.54;65.35;96889.88;1734697;81;21321;-78
2021/04/25 00:03:55;;;;;;;33.88;22.85;;;;;;;5.56;65.16;96883.63;1758967;80;21125;-78
2021/04/25 00:06:22;;;;;;;32.75;20.65;;;;;;;5.59;65.02;96883.82;1748510;80;21244;-78
2021/04/25 00:08:48;;;;;;;35.73;21.95;;;;;;;5.60;65.00;96884.16;1722503;81;21212;-78
2021/04/25 00:11:14;;;;;;;38.05;22.52;;;;;;;5.57;65.08;96879.28;1793146;78;21094;-78
2021/04/25 00:13:43;;;;;;;34.88;22.20;;;;;;;5.51;64.91;96876.77;1787990;78;21196;-78
2021/04/25 00:16:08;;;;;;;32.38;19.65;;;;;;;5.52;65.11;96878.39;1750087;79;21118;-77
2021/04/25 00:18:35;;;;;;;38.25;23.77;;;;;;;5.51;65.24;96875.95;1803233;79;21063;-77
2021/04/25 00:21:01;;;;;;;33.90;22.27;;;;;;;5.47;65.20;96882.34;1785015;79;21218;-77
2021/04/25 00:23:27;;;;;;;31.80;20.85;;;;;;;5.43;65.32;96881.33;1783990;78;21133;-77
2021/04/25 00:25:53;;;;;;;37.73;23.57;;;;;;;5.39;65.34;96878.70;1777464;79;21117;-77
2021/04/25 00:28:19;;;;;;;41.58;24.65;;;;;;;5.37;65.53;96881.89;1785025;78;21201;-80
2021/04/25 00:30:45;;;;;;;36.17;24.07;;;;;;;5.33;65.50;96874.07;1785811;78;21101;-79
2021/04/25 00:33:11;;;;;;;37.90;22.60;;;;;;;5.30;65.65;96876.12;1788885;79;21106;-79
2021/04/25 00:35:37;;;;;;;37.42;24.75;;;;;;;5.27;65.59;96873.34;1777415;79;21205;-80
2021/04/25 00:38:03;;;;;;;41.83;25.27;;;;;;;5.26;65.50;96871.72;1781393;79;21077;-80
2021/04/25 00:40:29;;;;;;;37.58;23.95;;;;;;;5.26;65.42;96869.14;1784070;78;21098;-80
2021/04/25 00:42:55;;;;;;;33.90;23.42;;;;;;;5.28;65.65;96871.10;1791378;78;21243;-79
2021/04/25 00:45:21;;;;;;;38.85;22.98;;;;;;;5.25;65.72;96857.20;1796196;79;21086;-78
2021/04/25 00:47:49;;;;;;;33.05;21.15;;;;;;;5.24;65.65;96858.16;1796939;79;21101;-78
2021/04/25 00:50:20;;;;;;;34.30;22.07;;;;;;;5.22;65.62;96856.67;1796108;79;21530;-77
2021/04/25 00:52:47;;;;;;;37.40;22.07;;;;;;;5.18;65.86;96858.69;1779200;78;21095;-78
2021/04/25 00:55:15;;;;;;;32.55;22.37;;;;;;;5.12;66.08;96861.34;1782616;79;21099;-78
2021/04/25 00:57:41;;;;;;;34.55;21.60;;;;;;;5.09;65.98;96854.37;1755976;80;21127;-77
2021/04/25 01:00:11;;;;;;;34.75;23.30;;;;;;;5.03;65.95;96856.99;1767334;80;21086;-80
2021/04/25 01:02:37;;;;;;;30.32;20.68;;;;;;;5.00;66.02;96864.19;1742758;80;21165;-80
2021/04/25 01:05:06;;;;;;;33.08;20.62;;;;;;;4.96;66.11;96855.11;1771033;79;21934;-80
2021/04/25 01:07:32;;;;;;;34.18;23.12;;;;;;;4.92;65.93;96857.14;1762856;80;21097;-79
2021/04/25 01:09:58;;;;;;;36.53;22.32;;;;;;;4.90;66.03;96860.81;1770467;80;21105;-80
2021/04/25 01:12:23;;;;;;;38.83;23.38;;;;;;;4.89;66.17;96860.00;1761917;80;21091;-79
2021/04/25 01:14:50;;;;;;;37.30;20.82;;;;;;;4.89;66.23;96856.13;1742464;80;21216;-79
2021/04/25 01:17:18;;;;;;;36.23;20.85;;;;;;;4.90;66.24;96855.66;1764868;80;21228;-79
2021/04/25 01:19:44;;;;;;;31.52;19.02;;;;;;;4.90;66.11;96850.51;1769770;80;21476;-79
2021/04/25 01:22:10;;;;;;;31.07;18.92;;;;;;;4.87;66.19;96849.47;1763922;80;21058;-79
2021/04/25 01:24:36;;;;;;;26.42;17.30;;;;;;;4.82;66.25;96849.41;1773751;80;21105;-80
2021/04/25 01:27:03;;;;;;;26.42;15.72;;;;;;;4.80;66.25;96849.20;1768994;80;21111;-80
2021/04/25 01:29:29;;;;;;;25.15;16.97;;;;;;;4.78;66.12;96845.95;1769357;79;21066;-80
2021/04/25 01:31:55;;;;;;;25.15;14.65;;;;;;;4.75;66.28;96844.47;1774128;80;21118;-80
2021/04/25 01:34:21;;;;;;;23.02;13.10;;;;;;;4.73;66.69;96840.40;1765988;80;21065;-80
2021/04/25 01:36:47;;;;;;;19.12;11.53;;;;;;;4.70;66.65;96835.49;1748731;80;21318;-76
2021/04/25 01:39:13;;;;;;;20.02;11.78;;;;;;;4.66;66.37;96832.38;1764340;79;21206;-76
2021/04/25 01:41:39;;;;;;;20.60;12.30;;;;;;;4.62;66.79;96836.18;1773306;80;21244;-76
2021/04/25 01:44:05;;;;;;;18.37;11.93;;;;;;;4.58;66.77;96834.83;1774210;80;21090;-76
2021/04/25 01:46:31;;;;;;;19.17;12.65;;;;;;;4.59;66.35;96834.35;1759860;80;21920;-76
2021/04/25 01:48:57;;;;;;;20.75;12.37;;;;;;;4.59;66.18;96827.92;1770429;80;21078;-76
2021/04/25 01:51:24;;;;;;;16.90;10.45;;;;;;;4.59;66.18;96827.92;1765332;80;21244;-77
2021/04/25 01:53:50;;;;;;;19.50;11.95;;;;;;;4.57;66.34;96828.05;1776112;80;21200;-79
2021/04/25 01:56:17;;;;;;;16.20;9.90;;;;;;;4.54;66.39;96827.01;1757447;79;21098;-79
2021/04/25 01:58:43;;;;;;;13.58;10.15;;;;;;;4.48;66.32;96822.41;1779330;79;21337;-79
2021/04/25 02:01:10;;;;;;;16.32;9.35;;;;;;;4.43;66.47;96822.81;1785452;79;21220;-79
2021/04/25 02:03:36;;;;;;;13.70;8.75;;;;;;;4.38;66.61;96821.56;1788802;79;21630;-79
2021/04/25 02:06:02;;;;;;;15.80;10.03;;;;;;;4.32;66.57;96825.48;1790225;79;21209;-79
2021/04/25 02:08:28;;;;;;;16.55;10.20;;;;;;;4.27;66.79;96824.27;1775742;79;21341;-79
2021/04/25 02:10:54;;;;;;;13.83;8.85;;;;;;;4.21;66.81;96829.44;1795868;79;21075;-79
2021/04/25 02:13:20;;;;;;;13.48;8.33;;;;;;;4.15;66.68;96832.08;1780239;79;21214;-79
2021/04/25 02:15:46;;;;;;;14.05;8.63;;;;;;;4.11;66.73;96828.62;1793236;79;21311;-79
2021/04/25 02:18:12;;;;;;;14.18;9.53;;;;;;;4.07;66.79;96830.64;1787592;79;21317;-79
2021/04/25 02:20:38;;;;;;;15.90;9.83;;;;;;;4.05;66.86;96822.69;1792186;79;21432;-79
2021/04/25 02:23:04;;;;;;;17.32;8.68;;;;;;;4.04;66.96;96821.06;1795924;79;21075;-79
2021/04/25 02:25:30;;;;;;;13.48;8.65;;;;;;;4.04;66.90;96824.92;1793545;79;21126;-76
2021/04/25 02:27:57;;;;;;;22.07;12.85;;;;;;;4.03;67.23;96817.68;1788356;79;21062;-76
2021/04/25 02:30:29;;;;;;;27.32;18.90;;;;;;;4.02;67.33;96822.48;1780746;79;21083;-76
2021/04/25 02:32:55;;;;;;;35.23;22.13;;;;;;;4.01;67.29;96820.05;1784369;79;21423;-76
2021/04/25 02:35:21;;;;;;;30.43;19.77;;;;;;;3.99;67.46;96811.18;1794491;79;21306;-79
2021/04/25 02:37:47;;;;;;;30.40;18.35;;;;;;;3.97;67.66;96810.97;1789861;79;21200;-79
2021/04/25 02:40:17;;;;;;;30.40;20.05;;;;;;;3.94;67.76;96809.48;1781912;79;21121;-76
2021/04/25 02:42:44;;;;;;;37.70;23.32;;;;;;;3.91;67.86;96808.45;1786097;79;21074;-77
2021/04/25 02:45:17;;;;;;;34.88;22.52;;;;;;;3.87;67.84;96803.21;1798584;79;21122;-78
2021/04/25 02:47:55;;;;;;;35.38;20.62;;;;;;;3.82;67.85;96802.80;1784975;79;21115;-77
2021/04/25 02:50:24;;;;;;;36.20;18.75;;;;;;;3.80;67.92;96796.50;1791854;79;21121;-77
2021/04/25 02:52:51;;;;;;;22.95;14.47;;;;;;;3.80;67.93;96796.97;1739445;81;21125;-77
2021/04/25 02:55:16;;;;;;;21.73;14.07;;;;;;;3.79;67.86;96787.16;1750959;80;21236;-77
2021/04/25 02:57:42;;;;;;;22.58;13.18;;;;;;;3.80;67.98;96790.08;1786469;79;21061;-77
2021/04/25 03:00:12;;;;;;;21.77;14.38;;;;;;;3.79;68.01;96784.59;1779642;79;21058;-76
2021/04/25 03:02:38;;;;;;;18.37;13.30;;;;;;;3.77;68.02;96781.81;1775115;79;21091;-79
2021/04/25 03:05:05;;;;;;;15.65;9.45;;;;;;;3.75;67.95;96787.09;1767066;79;21321;-79
2021/04/25 03:07:32;;;;;;;15.40;9.70;;;;;;;3.70;67.98;96780.22;1769641;79;21122;-80
2021/04/25 03:09:58;;;;;;;10.28;8.38;;;;;;;3.67;68.02;96783.52;1783264;79;21095;-79
2021/04/25 03:12:24;;;;;;;13.35;9.93;;;;;;;3.61;68.10;96777.16;1769943;79;21094;-79
2021/04/25 03:14:50;;;;;;;17.82;8.38;;;;;;;3.57;68.15;96780.89;1777320;79;21249;-79
2021/04/25 03:17:16;;;;;;;16.32;9.23;;;;;;;3.52;68.29;96777.44;1773861;79;21119;-79
2021/04/25 03:19:42;;;;;;;12.03;7.78;;;;;;;3.51;68.31;96784.80;1772306;79;21086;-79
2021/04/25 03:22:08;;;;;;;10.95;6.97;;;;;;;3.50;68.25;96776.75;1774508;79;21095;-79
2021/04/25 03:24:34;;;;;;;10.70;6.70;;;;;;;3.50;68.32;96777.23;1783504;79;21237;-79
2021/04/25 03:27:01;;;;;;;12.63;6.83;;;;;;;3.48;68.27;96769.66;1778686;79;21063;-79
2021/04/25 03:29:28;;;;;;;10.50;7.05;;;;;;;3.47;68.31;96771.88;1765361;79;21325;-80
2021/04/25 03:31:54;;;;;;;9.30;5.67;;;;;;;3.45;68.34;96777.62;1736728;81;21103;-76
2021/04/25 03:34:20;;;;;;;9.68;6.00;;;;;;;3.42;68.39;96775.78;1716559;82;21134;-77
2021/04/25 03:36:46;;;;;;;8.23;5.83;;;;;;;3.37;68.47;96769.72;1709588;81;21626;-77
2021/04/25 03:39:13;;;;;;;10.40;5.90;;;;;;;3.35;68.55;96772.08;1721753;82;21097;-77
2021/04/25 03:41:39;;;;;;;10.85;6.75;;;;;;;3.30;68.70;96771.19;1700765;82;21123;-77
2021/04/25 03:44:06;;;;;;;10.13;6.90;;;;;;;3.28;68.71;96764.89;1725486;82;21360;-77
2021/04/25 03:46:32;;;;;;;10.45;7.28;;;;;;;3.26;68.82;96766.78;1707972;82;21129;-77
2021/04/25 03:48:59;;;;;;;9.80;7.35;;;;;;;3.23;68.91;96769.58;1772561;79;21298;-77
2021/04/25 03:51:25;;;;;;;12.07;7.65;;;;;;;3.25;68.99;96762.59;1761970;79;21249;-77
2021/04/25 03:53:52;;;;;;;12.10;7.47;;;;;;;3.26;69.02;96773.20;1764583;79;21089;-77
2021/04/25 03:56:18;;;;;;;15.25;8.25;;;;;;;3.30;68.99;96769.90;1764366;79;21113;-79
2021/04/25 03:58:44;;;;;;;12.50;9.10;;;;;;;3.31;69.07;96771.53;1773878;79;21093;-79
2021/04/25 04:01:10;;;;;;;12.75;8.93;;;;;;;3.30;69.17;96768.14;1771671;79;21098;-79
2021/04/25 04:03:36;;;;;;;12.43;8.18;;;;;;;3.30;69.21;96772.00;1781868;79;21110;-79
2021/04/25 04:06:03;;;;;;;11.08;7.33;;;;;;;3.29;69.35;96769.56;1776372;79;21113;-79
2021/04/25 04:08:29;;;;;;;13.72;8.93;;;;;;;3.27;69.23;96776.58;1785524;79;21220;-80
2021/04/25 04:10:55;;;;;;;13.65;8.73;;;;;;;3.29;69.20;96774.70;1777380;79;21071;-79
2021/04/25 04:13:21;;;;;;;11.63;7.75;;;;;;;3.31;69.25;96783.89;1781059;79;21290;-80
2021/04/25 04:15:47;;;;;;;16.12;8.65;;;;;;;3.32;69.34;96783.42;1784041;79;21161;-79
2021/04/25 04:18:13;;;;;;;13.93;8.80;;;;;;;3.39;69.22;96789.67;1774838;79;21074;-79
2021/04/25 04:20:39;;;;;;;14.85;9.68;;;;;;;3.43;69.33;96792.35;1773114;79;21125;-79
2021/04/25 04:23:05;;;;;;;20.00;13.13;;;;;;;3.45;69.45;96798.64;1779828;79;21456;-79
2021/04/25 04:25:31;;;;;;;18.55;12.05;;;;;;;3.44;69.47;96796.55;1783450;79;21085;-76
2021/04/25 04:27:57;;;;;;;20.92;16.10;;;;;;;3.45;69.49;96794.79;1778904;79;21103;-76
2021/04/25 04:30:23;;;;;;;28.62;19.45;;;;;;;3.46;69.65;96798.52;1777290;79;21090;-75
2021/04/25 04:32:49;;;;;;;26.95;17.50;;;;;;;3.45;69.71;96802.03;1777306;79;21071;-76
2021/04/25 04:35:15;;;;;;;30.08;19.75;;;;;;;3.47;69.74;96798.05;1781184;79;21126;-76
2021/04/25 04:37:41;;;;;;;31.15;20.80;;;;;;;3.48;69.79;96804.33;1773762;79;21231;-76
2021/04/25 04:40:09;;;;;;;36.20;23.42;;;;;;;3.52;69.80;96806.98;1781111;79;21217;-76
2021/04/25 04:42:35;;;;;;;39.42;25.62;;;;;;;3.59;69.95;96804.73;1784813;79;21244;-76
2021/04/25 04:45:01;;;;;;;39.63;26.27;;;;;;;3.67;69.92;96811.79;1772323;79;21069;-76
2021/04/25 04:47:27;;;;;;;38.23;27.60;;;;;;;3.78;69.93;96811.24;1773995;79;21130;-76
2021/04/25 04:49:53;;;;;;;43.83;29.27;;;;;;;3.90;70.10;96813.23;1784750;79;21325;-77
2021/04/25 04:52:19;;;;;;;42.45;28.30;;;;;;;4.02;70.17;96815.24;1790297;79;21451;-76
2021/04/25 04:54:45;;;;;;;40.23;28.77;;;;;;;4.13;70.19;96812.58;1784572;79;21468;-77
2021/04/25 04:57:15;;;;;;;39.58;28.30;;;;;;;4.26;70.26;96808.48;1778873;79;21137;-76
2021/04/25 04:59:39;;;;;;;40.15;28.42;;;;;;;4.36;70.58;96815.73;1775599;79;21106;-76
2021/04/25 05:02:05;;;;;;;44.75;31.10;;;;;;;4.45;71.15;96809.81;1762162;79;21368;-77
2021/04/25 05:04:31;;;;;;;42.38;28.15;;;;;;;4.54;71.05;96812.85;1784221;79;21241;-76
2021/04/25 05:06:57;;;;;;;43.17;29.57;;;;;;;4.64;70.92;96810.30;1760085;79;21205;-76
2021/04/25 05:09:23;;;;;;;42.83;29.65;;;;;;;4.76;70.42;96815.67;1771700;79;21240;-77
2021/04/25 05:11:49;;;;;;;43.90;28.73;;;;;;;4.88;70.14;96808.60;1767862;79;21093;-76
2021/04/25 05:14:15;;;;;;;40.25;29.30;;;;;;;4.96;69.77;96807.47;1757032;79;21428;-76
2021/04/25 05:16:41;;;;;;;47.65;31.77;;;;;;;5.07;69.77;96806.05;1777554;79;21089;-76
2021/04/25 05:19:10;;;;;;;44.20;29.80;;;;;;;5.16;69.56;96801.81;1768758;79;21233;-76
2021/04/25 05:21:36;;;;;;;42.30;29.82;;;;;;;5.23;69.50;96801.14;1763032;79;21095;-76
2021/04/25 05:24:03;;;;;;;42.50;30.80;;;;;;;5.32;69.38;96795.14;1775040;79;21212;-76
2021/04/25 05:26:29;;;;;;;40.63;30.05;;;;;;;5.36;68.87;96793.91;1761403;79;21063;-77
2021/04/25 05:28:55;;;;;;;40.65;30.12;;;;;;;5.40;68.52;96796.56;1776092;79;21126;-77
2021/04/25 05:31:22;;;;;;;45.55;30.12;;;;;;;5.43;68.52;96792.41;1753570;79;21107;-79
2021/04/25 05:33:48;;;;;;;43.55;29.15;;;;;;;5.48;68.32;96795.85;1770588;79;21275;-79
2021/04/25 05:36:14;;;;;;;39.10;28.85;;;;;;;5.54;67.92;96794.50;1766265;79;21114;-79
2021/04/25 05:38:40;;;;;;;46.28;30.20;;;;;;;5.61;68.32;96794.27;1788085;79;21278;-79
2021/04/25 05:41:06;;;;;;;35.58;27.13;;;;;;;5.70;67.96;96793.44;1759777;79;21054;-79
2021/04/25 05:43:32;;;;;;;45.88;30.25;;;;;;;5.79;67.38;96804.66;1770107;79;21091;-79
2021/04/25 05:45:58;;;;;;;43.75;26.90;;;;;;;5.85;67.55;96804.88;1756616;79;21118;-79
2021/04/25 05:48:24;;;;;;;35.10;24.87;;;;;;;6.05;65.99;96791.95;1774801;79;21268;-79
2021/04/25 05:50:50;;;;;;;30.30;22.37;;;;;;;6.05;65.99;96791.95;1728475;81;21487;-80
2021/04/25 05:53:16;;;;;;;31.45;21.10;;;;;;;6.19;65.73;96795.35;1769146;79;21099;-79
2021/04/25 05:55:43;;;;;;;29.15;19.87;;;;;;;6.35;66.98;96794.24;1737230;81;21110;-79
2021/04/25 05:58:10;;;;;;;31.93;19.80;;;;;;;6.49;66.09;96796.78;1765221;79;21133;-77
2021/04/25 06:00:38;;;;;;;30.92;18.52;;;;;;;6.60;65.28;96796.09;1783889;79;21132;-77
2021/04/25 06:03:05;;;;;;;29.18;19.23;;;;;;;6.67;65.92;96795.05;1787562;79;21149;-77
2021/04/25 06:05:31;;;;;;;24.05;17.80;;;;;;;6.80;65.00;96792.08;1780752;79;21340;-77
2021/04/25 06:07:57;;;;;;;22.30;15.18;;;;;;;6.89;63.71;96787.33;1776288;79;21292;-76
2021/04/25 06:10:23;;;;;;;21.97;16.10;;;;;;;6.96;63.37;96788.81;1784294;79;21289;-78
2021/04/25 06:12:51;;;;;;;19.00;13.83;;;;;;;7.06;62.84;96782.62;1778881;79;21063;-79
2021/04/25 06:15:19;;;;;;;21.57;14.70;;;;;;;7.19;61.87;96783.53;1782616;79;21294;-79
2021/04/25 06:17:45;;;;;;;25.62;15.68;;;;;;;7.23;61.82;96786.95;1741650;80;21133;-78
2021/04/25 06:20:13;;;;;;;22.90;15.53;;;;;;;7.26;62.02;96785.02;1773630;79;21227;-78
2021/04/25 06:22:41;;;;;;;19.10;13.93;;;;;;;7.18;61.60;96787.08;1783022;79;21075;-79
2021/04/25 06:25:09;;;;;;;22.95;15.88;;;;;;;7.13;61.57;96786.70;1785923;79;21095;-79
2021/04/25 06:27:36;;;;;;;25.15;18.20;;;;;;;7.22;61.92;96784.03;1779211;79;21221;-79
2021/04/25 06:30:02;;;;;;;23.75;16.65;;;;;;;7.26;61.93;96771.61;1738107;80;21103;-80
2021/04/25 06:32:28;;;;;;;19.65;12.30;;;;;;;7.39;61.64;96776.38;1782951;79;21239;-80
2021/04/25 06:34:54;;;;;;;23.07;15.50;;;;;;;7.55;61.04;96785.53;1781546;79;21483;-79
2021/04/25 06:37:20;;;;;;;21.15;13.30;;;;;;;7.71;60.36;96790.80;1778267;79;21094;-78
2021/04/25 06:39:46;;;;;;;16.77;12.30;;;;;;;7.72;59.13;96791.61;1778341;79;21452;-76
2021/04/25 06:42:12;;;;;;;17.37;12.80;;;;;;;7.53;57.84;96790.86;1777035;79;21090;-76
2021/04/25 06:44:38;;;;;;;18.62;12.75;;;;;;;7.39;58.26;96794.00;1784331;79;21075;-76
2021/04/25 06:47:04;;;;;;;19.48;12.40;;;;;;;7.34;59.11;96798.02;1781667;79;21119;-80
2021/04/25 06:49:32;;;;;;;16.97;11.95;;;;;;;7.32;59.09;96796.88;1750711;80;21095;-79
2021/04/25 06:52:00;;;;;;;17.42;11.12;;;;;;;7.25;58.66;96793.73;1754276;80;21088;-79
2021/04/25 06:54:26;;;;;;;12.65;8.85;;;;;;;7.19;57.57;96801.62;1793403;79;21248;-79
2021/04/25 06:56:52;;;;;;;16.42;10.15;;;;;;;7.10;58.44;96813.65;1768444;79;21054;-79
2021/04/25 06:59:18;;;;;;;16.65;10.63;;;;;;;7.05;57.81;96811.20;1772057;80;21111;-80
2021/04/25 07:01:44;;;;;;;15.63;9.70;;;;;;;7.06;58.87;96802.48;1782925;79;21297;-79
2021/04/25 07:04:10;;;;;;;15.88;10.95;;;;;;;7.15;58.32;96806.25;1799278;79;21051;-80
2021/04/25 07:06:37;;;;;;;17.10;11.88;;;;;;;7.22;59.20;96806.48;1786635;79;21443;-80
2021/04/25 07:09:04;;;;;;;14.58;9.83;;;;;;;7.28;58.18;96810.23;1782849;79;21216;-80
2021/04/25 07:11:30;;;;;;;18.12;12.98;;;;;;;7.30;57.58;96807.01;1777902;79;21063;-80
2021/04/25 07:13:56;;;;;;;18.42;12.68;;;;;;;7.27;57.60;96809.41;1766553;79;21122;-80
2021/04/25 07:16:22;;;;;;;16.95;11.48;;;;;;;7.32;57.91;96810.25;1781657;79;21083;-80
2021/04/25 07:18:48;;;;;;;21.05;13.98;;;;;;;7.37;57.50;96802.39;1777763;79;21314;-79
2021/04/25 07:21:14;;;;;;;20.62;14.63;;;;;;;7.39;57.72;96797.06;1778215;79;21217;-80
2021/04/25 07:23:40;;;;;;;19.07;12.43;;;;;;;7.60;58.59;96799.30;1791208;79;21092;-80
2021/04/25 07:26:08;;;;;;;17.27;12.53;;;;;;;7.68;57.54;96800.16;1776555;79;21258;-80
2021/04/25 07:28:36;;;;;;;15.03;10.88;;;;;;;7.85;58.37;96802.36;1788406;79;21405;-80
2021/04/25 07:31:03;;;;;;;14.65;10.38;;;;;;;8.04;56.03;96796.12;1773797;79;21101;-77
2021/04/25 07:33:29;;;;;;;13.18;10.03;;;;;;;8.16;56.42;96798.77;1771389;79;21075;-77
2021/04/25 07:35:56;;;;;;;13.62;8.83;;;;;;;8.18;56.11;96796.83;1777868;79;21127;-76
2021/04/25 07:38:24;;;;;;;11.90;8.35;;;;;;;8.20;55.05;96796.19;1745254;81;21071;-77
2021/04/25 07:40:50;;;;;;;12.60;8.10;;;;;;;8.30;55.28;96794.30;1728872;82;21130;-77
2021/04/25 07:43:16;;;;;;;11.85;8.73;;;;;;;8.35;54.23;96793.84;1722163;82;21126;-77
2021/04/25 07:45:42;;;;;;;15.55;10.20;;;;;;;8.42;55.13;96800.81;1792094;79;21225;-77
2021/04/25 07:48:08;;;;;;;13.60;7.40;;;;;;;8.48;54.22;96791.63;1792091;79;21273;-77
2021/04/25 07:50:34;;;;;;;15.72;9.80;;;;;;;8.59;55.39;96792.59;1791167;79;21097;-77
2021/04/25 07:53:01;;;;;;;13.60;8.48;;;;;;;8.72;54.88;96789.06;1794996;79;21111;-76
2021/04/25 07:55:30;;;;;;;11.90;7.22;;;;;;;8.87;55.01;96790.53;1797817;79;21286;-83
2021/04/25 07:57:58;;;;;;;14.83;10.03;;;;;;;9.03;54.62;96784.06;1796921;79;21257;-77
2021/04/25 08:00:24;;;;;;;12.07;9.55;;;;;;;9.14;54.09;96782.13;1780172;79;21415;-78
2021/04/25 08:02:50;;;;;;;12.90;7.92;;;;;;;9.15;54.37;96782.45;1794350;79;21090;-77
2021/04/25 08:05:16;;;;;;;12.13;7.05;;;;;;;9.19;53.25;96785.03;1785374;79;21071;-78
2021/04/25 08:07:42;;;;;;;8.65;5.67;;;;;;;9.18;53.41;96789.90;1794204;79;21083;-79
2021/04/25 08:10:11;;;;;;;39.00;24.65;;;;;;;9.12;52.40;96785.37;1793313;79;21082;-77
2021/04/25 08:12:37;;;;;;;14.33;8.53;;;;;;;9.07;52.75;96783.73;1793233;79;21364;-79
2021/04/25 08:15:06;;;;;;;7.45;5.83;;;;;;;9.05;51.76;96785.69;1796886;79;21127;-81
2021/04/25 08:17:33;;;;;;;8.75;5.70;;;;;;;8.96;51.52;96782.30;1800773;79;21435;-78
2021/04/25 08:19:59;;;;;;;9.78;5.60;;;;;;;8.87;51.22;96782.77;1760295;81;21111;-79
2021/04/25 08:22:25;;;;;;;12.05;6.83;;;;;;;8.87;50.73;96786.65;1727567;82;21097;-78
2021/04/25 08:24:54;;;;;;;10.03;6.47;;;;;;;8.85;50.92;96783.90;1731255;82;21178;-77
2021/04/25 08:27:20;;;;;;;13.48;11.38;;;;;;;8.87;51.00;96780.17;1792276;79;21234;-80
2021/04/25 08:29:46;;;;;;;14.78;9.65;;;;;;;8.98;51.28;96780.34;1800920;79;21099;-76
2021/04/25 08:32:12;;;;;;;12.73;9.48;;;;;;;9.11;51.55;96779.84;1788181;79;21077;-77
2021/04/25 08:34:38;;;;;;;9.38;7.08;;;;;;;9.25;52.66;96780.00;1798147;79;21079;-77
2021/04/25 08:37:04;;;;;;;8.35;5.95;;;;;;;9.47;50.03;96782.42;1800564;79;21051;-77
2021/04/25 08:39:30;;;;;;;10.32;7.10;;;;;;;9.67;50.88;96778.97;1795441;79;21098;-76
2021/04/25 08:41:56;;;;;;;9.43;6.15;;;;;;;9.85;50.13;96779.56;1796830;79;21067;-76
2021/04/25 08:44:24;;;;;;;7.87;4.33;;;;;;;9.89;49.86;96778.24;1790919;79;21324;-76
2021/04/25 08:46:52;;;;;;;6.37;5.00;;;;;;;9.95;48.49;96778.57;1800278;79;21098;-77
2021/04/25 08:49:21;;;;;;;7.37;5.60;;;;;;;9.88;47.05;96771.92;1796361;79;21321;-77
2021/04/25 08:51:47;;;;;;;10.80;7.30;;;;;;;9.86;48.87;96773.88;1771743;80;21114;-77
2021/04/25 08:54:13;;;;;;;8.58;5.90;;;;;;;9.87;48.70;96772.41;1725002;82;21328;-77
2021/04/25 08:56:39;;;;;;;7.37;4.97;;;;;;;9.93;48.38;96773.55;1711495;82;21088;-79
2021/04/25 08:59:05;;;;;;;8.40;5.67;;;;;;;9.95;47.78;96774.67;1717001;82;21128;-79
2021/04/25 09:01:32;;;;;;;5.05;3.30;;;;;;;9.93;47.71;96777.45;1719332;82;21076;-76
2021/04/25 09:03:58;;;;;;;9.70;4.28;;;;;;;9.76;46.00;96758.52;1741345;82;21139;-77
2021/04/25 09:06:24;;;;;;;5.33;4.05;;;;;;;9.80;46.41;96771.48;1734061;82;21122;-77
2021/04/25 09:08:57;;;;;;;6.65;4.80;;;;;;;9.74;46.24;96768.23;1716832;82;21298;-78
2021/04/25 09:11:35;;;;;;;8.50;5.50;;;;;;;9.63;46.23;96770.71;1784712;79;21106;-77
2021/04/25 09:14:22;;;;;;;7.17;5.33;;;;;;;9.63;46.11;96775.09;1786284;78;21131;-77
2021/04/25 09:17:01;;;;;;;7.17;4.62;;;;;;;9.67;46.57;96774.27;1770334;79;21503;-77
2021/04/25 09:19:58;;;;;;;6.47;4.37;;;;;;;9.95;46.04;96772.08;1791088;79;21093;-77
2021/04/25 09:22:43;;;;;;;6.87;4.55;;;;;;;10.10;44.17;96763.91;1788242;79;21144;-77
2021/04/25 09:25:12;;;;;;;9.10;4.87;;;;;;;9.98;44.46;96764.77;1784520;79;21407;-76
2021/04/25 09:27:40;;;;;;;8.08;5.05;;;;;;;9.86;44.60;96765.61;1789176;79;21109;-79
2021/04/25 09:30:08;;;;;;;7.55;4.92;;;;;;;9.73;45.76;96769.70;1783303;79;21151;-79
2021/04/25 09:32:34;;;;;;;7.00;5.40;;;;;;;9.59;44.73;96760.81;1793117;79;21087;-79
2021/04/25 09:35:18;;;;;;;6.72;4.95;;;;;;;9.43;44.51;96768.14;1785518;79;21126;-79
2021/04/25 09:37:49;;;;;;;10.48;6.35;;;;;;;9.27;44.65;96771.59;1799548;79;21122;-77
2021/04/25 09:40:23;;;;;;;11.63;7.75;;;;;;;9.14;46.03;96773.06;1793192;79;21099;-76
2021/04/25 09:43:07;;;;;;;11.95;8.00;;;;;;;9.07;46.84;96772.88;1784623;79;21854;-76
2021/04/25 09:45:42;;;;;;;10.23;6.67;;;;;;;9.02;47.54;96764.30;1767945;79;21337;-76
2021/04/25 09:48:30;;;;;;;11.40;6.90;;;;;;;8.95;47.02;96764.64;1789622;79;21054;-76
2021/04/25 09:51:21;;;;;;;10.65;8.70;;;;;;;8.95;47.94;96771.61;1783489;79;21087;-76
2021/04/25 09:53:58;;;;;;;16.85;11.57;;;;;;;8.98;48.50;96763.02;1776800;79;21098;-77
2021/04/25 09:56:37;;;;;;;12.68;9.05;;;;;;;8.99;48.89;96771.11;1790127;79;21307;-77
2021/04/25 09:59:06;;;;;;;17.15;11.53;;;;;;;9.00;48.67;96768.84;1763124;80;21393;-76
2021/04/25 10:01:43;;;;;;;14.63;10.20;;;;;;;8.97;49.34;96769.66;1802697;78;23083;-76
2021/04/25 10:04:37;;;;;;;13.45;9.35;;;;;;;8.92;49.62;96770.13;1765931;79;21347;-78
2021/04/25 10:07:06;;;;;;;15.60;11.95;;;;;;;8.92;49.02;96776.60;1717931;81;21356;-80
2021/04/25 10:09:32;;;;;;;16.37;10.93;;;;;;;8.89;49.74;96775.63;1728046;82;21126;-77
2021/04/25 10:12:00;;;;;;;15.38;10.68;;;;;;;8.90;49.12;96773.36;1720410;82;21147;-79
2021/04/25 10:14:28;;;;;;;14.70;10.48;;;;;;;8.83;49.15;96769.00;1722784;82;21168;-77
2021/04/25 10:16:54;;;;;;;18.95;13.95;;;;;;;8.82;49.59;96766.90;1733596;81;21118;-77
2021/04/25 10:19:21;;;;;;;13.50;9.70;;;;;;;8.85;48.67;96772.23;1733220;81;21110;-77
2021/04/25 10:21:47;;;;;;;11.88;7.25;;;;;;;8.88;48.27;96766.73;1737879;81;21102;-76
2021/04/25 10:24:20;;;;;;;12.30;8.35;;;;;;;8.92;48.56;96766.23;1742572;81;21114;-76
2021/04/25 10:26:58;;;;;;;20.40;13.35;;;;;;;8.96;47.93;96761.08;1735525;81;21125;-76
2021/04/25 10:29:33;;;;;;;12.55;8.18;;;;;;;9.07;48.64;96757.81;1741267;81;21229;-76
2021/04/25 10:32:00;;;;;;;9.45;6.42;;;;;;;9.21;47.46;96761.05;1738209;81;21257;-76
2021/04/25 10:34:27;;;;;;;23.52;21.02;;;;;;;9.24;46.40;96762.02;1720450;82;21134;-77
2021/04/25 10:36:56;;;;;;;17.87;14.87;;;;;;;9.20;46.63;96763.32;1729772;82;21309;-79
2021/04/25 10:39:38;;;;;;;17.95;14.65;;;;;;;9.16;47.25;96760.25;1715268;82;21236;-79
2021/04/25 10:42:24;;;;;;;11.43;7.78;;;;;;;9.14;48.11;96758.31;1716964;82;21142;-78
2021/04/25 10:45:05;;;;;;;11.12;6.40;;;;;;;9.12;47.42;96760.27;1718517;82;21494;-78
2021/04/25 10:47:37;;;;;;;11.18;6.80;;;;;;;8.97;47.39;96759.30;1723192;82;21259;-78
2021/04/25 10:50:18;;;;;;;10.50;6.80;;;;;;;8.91;47.91;96763.81;1724160;81;21244;-79
2021/04/25 10:52:47;;;;;;;11.57;7.45;;;;;;;8.83;48.00;96766.41;1722944;81;21079;-78
2021/04/25 10:55:24;;;;;;;10.20;6.55;;;;;;;8.68;47.93;96767.53;1744900;81;21558;-79
2021/04/25 10:58:01;;;;;;;7.42;5.35;;;;;;;8.54;47.79;96775.92;1735438;81;21115;-80
2021/04/25 11:00:44;;;;;;;9.70;5.55;;;;;;;8.36;46.86;96779.45;1725601;81;21137;-80
2021/04/25 11:03:21;;;;;;;9.03;5.90;;;;;;;8.22;48.41;96776.62;1701456;81;21159;-80
2021/04/25 11:05:52;;;;;;;8.48;5.47;;;;;;;8.11;48.48;96782.39;1726151;81;21284;-81
2021/04/25 11:08:35;;;;;;;8.35;5.72;;;;;;;8.06;48.56;96782.55;1737711;81;21142;-81
2021/04/25 11:11:09;;;;;;;7.58;5.80;;;;;;;8.05;48.45;96784.33;1736967;81;21232;-78
2021/04/25 11:16:16;;;;;;;8.83;5.28;;;;;;;8.25;48.91;96793.94;1736081;81;21298;-81
2021/04/25 11:18:49;;;;;;;9.08;5.97;;;;;;;8.31;47.56;96788.63;1729442;81;21129;-79
2021/04/25 11:21:52;;;;;;;9.83;6.20;;;;;;;8.27;48.10;96794.58;1731036;81;21098;-80
2021/04/25 11:24:27;;;;;;;8.40;5.80;;;;;;;8.30;46.91;96789.60;1683599;84;21147;-79
2021/04/25 11:26:56;;;;;;;43.92;27.05;;;;;;;8.34;47.28;96790.45;1686480;84;21145;-79
2021/04/25 11:29:39;;;;;;;45.12;22.15;;;;;;;8.44;47.43;96789.00;1686344;84;21141;-79
2021/04/25 11:32:06;;;;;;;12.58;7.62;;;;;;;8.54;46.96;96796.64;1682475;84;21427;-82
2021/04/25 11:34:38;;;;;;;8.73;5.72;;;;;;;8.58;47.01;96789.68;1683985;84;21909;-79
2021/04/25 11:37:20;;;;;;;8.75;5.58;;;;;;;8.69;47.28;96789.39;1689439;84;21141;-78